Time;durP1;ratioP1;P1;durP2;ratioP2;P2;SDS_P1;SDS_P2;PMS_P1;PMS_P2;Temp;Humidity;BMP_temperature;BMP_pressure;BME280_temperature;BME280_humidity;BME280_pressure;Samples;Min_cycle;Max_cycle;Signal;HPM_P1;HPM_P2
2021/12/20 00:01:37;;;;;;;21.33;13.73;;;6.60;99.90;;;;;;5058191;28;20239;-80
2021/12/20 00:04:04;;;;;;;18.20;13.25;;;6.40;99.90;;;;;;5057539;28;20210;-79
2021/12/20 00:06:31;;;;;;;21.70;12.95;;;6.60;99.90;;;;;;5057735;28;20301;-80
2021/12/20 00:08:59;;;;;;;23.77;14.32;;;6.70;99.90;;;;;;5058463;28;20268;-79
2021/12/20 00:11:26;;;;;;;21.15;12.48;;;6.70;99.90;;;;;;5063841;28;20224;-80
2021/12/20 00:13:53;;;;;;;21.30;13.57;;;7.10;99.90;;;;;;5064187;28;20281;-78
2021/12/20 00:16:19;;;;;;;20.38;11.85;;;6.60;99.90;;;;;;5059657;28;20313;-79
2021/12/20 00:18:46;;;;;;;20.67;13.80;;;6.80;99.90;;;;;;5058862;28;20821;-79
2021/12/20 00:21:14;;;;;;;22.67;13.27;;;6.70;99.90;;;;;;5062680;28;20237;-78
2021/12/20 00:23:41;;;;;;;20.80;13.13;;;6.50;99.90;;;;;;5064647;28;20212;-78
2021/12/20 00:26:09;;;;;;;19.77;13.20;;;6.60;99.90;;;;;;5064260;28;20211;-78
2021/12/20 00:28:36;;;;;;;22.60;13.95;;;6.50;99.90;;;;;;5065375;28;20304;-78
2021/12/20 00:31:03;;;;;;;23.45;14.38;;;6.60;99.90;;;;;;5058197;28;20202;-78
2021/12/20 00:33:33;;;;;;;21.27;14.48;;;6.70;99.90;;;;;;5056587;28;20216;-80
2021/12/20 00:36:01;;;;;;;23.38;14.32;;;6.60;99.90;;;;;;5058528;28;20260;-79
2021/12/20 00:41:14;;;;;;;27.10;15.45;;;6.40;99.90;;;;;;5060383;28;20196;-79
2021/12/20 00:43:41;;;;;;;23.52;14.93;;;6.70;99.90;;;;;;5060664;28;20643;-79
2021/12/20 00:46:07;;;;;;;20.30;12.10;;;6.40;99.90;;;;;;5055860;28;20207;-79
2021/12/20 00:48:34;;;;;;;25.73;15.15;;;6.70;99.90;;;;;;5057733;28;20256;-78
2021/12/20 00:51:01;;;;;;;21.48;13.38;;;6.60;99.90;;;;;;5066915;28;20221;-78
2021/12/20 00:53:28;;;;;;;23.45;13.90;;;6.40;99.90;;;;;;5064068;28;20266;-78
2021/12/20 00:55:55;;;;;;;23.83;13.82;;;6.50;99.90;;;;;;5062326;28;20297;-79
2021/12/20 00:58:23;;;;;;;22.48;14.07;;;6.30;99.90;;;;;;5056273;28;20671;-79
2021/12/20 01:00:52;;;;;;;23.30;14.25;;;6.40;99.90;;;;;;5056180;28;20288;-79
2021/12/20 01:03:20;;;;;;;25.05;14.65;;;6.40;99.90;;;;;;5056505;28;20239;-80
2021/12/20 01:05:49;;;;;;;23.00;15.50;;;6.30;99.90;;;;;;5055646;28;20218;-79
2021/12/20 01:08:17;;;;;;;27.50;15.85;;;6.40;99.90;;;;;;5054046;28;20259;-78
2021/12/20 01:10:50;;;;;;;21.17;14.10;;;6.30;99.90;;;;;;5056232;28;20210;-77
2021/12/20 01:13:20;;;;;;;24.35;15.40;;;6.50;99.90;;;;;;5058122;28;20230;-79
2021/12/20 01:15:51;;;;;;;28.58;15.45;;;6.30;99.90;;;;;;5059114;28;20666;-78
2021/12/20 01:18:19;;;;;;;22.38;14.23;;;6.40;99.90;;;;;;5060723;28;20225;-79
2021/12/20 01:20:46;;;;;;;25.13;15.75;;;6.40;99.90;;;;;;5056024;28;20521;-79
2021/12/20 01:23:13;;;;;;;27.13;13.55;;;6.30;99.90;;;;;;5056582;28;20302;-78
2021/12/20 01:25:41;;;;;;;22.10;14.27;;;6.60;99.90;;;;;;5060146;28;20224;-78
2021/12/20 01:28:10;;;;;;;26.80;15.35;;;6.50;99.90;;;;;;5061892;28;20329;-79
2021/12/20 01:30:37;;;;;;;24.52;15.43;;;6.50;99.90;;;;;;5061146;28;20224;-78
2021/12/20 01:33:08;;;;;;;26.25;16.50;;;6.60;99.90;;;;;;5057890;28;20206;-79
2021/12/20 01:35:35;;;;;;;23.90;15.35;;;6.70;99.90;;;;;;5055615;28;20205;-80
2021/12/20 01:38:02;;;;;;;23.40;14.30;;;6.40;99.90;;;;;;5055958;28;20325;-79
2021/12/20 01:40:29;;;;;;;25.23;15.40;;;6.40;99.90;;;;;;5057110;28;20248;-79
2021/12/20 01:42:58;;;;;;;20.42;14.57;;;6.40;99.90;;;;;;5055749;28;20228;-79
2021/12/20 01:45:27;;;;;;;26.63;14.85;;;6.60;99.90;;;;;;5056207;28;20691;-79
2021/12/20 01:48:03;;;;;;;23.35;15.25;;;6.40;99.90;;;;;;5054937;28;20241;-79
2021/12/20 01:53:25;;;;;;;24.40;14.38;;;6.40;99.90;;;;;;5040225;28;20537;-79
2021/12/20 01:55:54;;;;;;;25.17;15.32;;;6.50;99.90;;;;;;5054836;28;20199;-80
2021/12/20 01:58:22;;;;;;;24.27;14.25;;;6.40;99.90;;;;;;5055370;28;20222;-79
2021/12/20 02:03:42;;;;;;;21.30;13.50;;;6.20;99.90;;;;;;5041355;28;20225;-79
2021/12/20 02:06:19;;;;;;;27.55;16.17;;;6.30;99.90;;;;;;5054986;28;20206;-79
2021/12/20 02:08:46;;;;;;;28.83;14.40;;;6.20;99.90;;;;;;5055093;28;20675;-79
2021/12/20 02:11:13;;;;;;;27.30;15.68;;;6.10;99.90;;;;;;5054731;28;20206;-79
2021/12/20 02:13:41;;;;;;;26.73;14.77;;;6.00;99.90;;;;;;5056150;28;20583;-79
2021/12/20 02:16:08;;;;;;;24.60;15.00;;;6.00;99.90;;;;;;5055463;28;20239;-79
2021/12/20 02:18:36;;;;;;;31.50;16.95;;;6.20;99.90;;;;;;5056697;28;20238;-79
2021/12/20 02:21:05;;;;;;;26.75;15.25;;;6.20;99.90;;;;;;5059689;28;20308;-79
2021/12/20 02:23:32;;;;;;;22.77;15.18;;;6.30;99.90;;;;;;5057560;28;20233;-79
2021/12/20 02:26:00;;;;;;;25.27;14.27;;;6.40;99.90;;;;;;5064453;28;20198;-79
2021/12/20 02:28:31;;;;;;;23.55;15.95;;;6.40;99.90;;;;;;5054457;28;20305;-79
2021/12/20 02:39:09;;;;;;;25.45;14.85;;;6.30;99.90;;;;;;5055953;28;20247;-79
2021/12/20 02:41:36;;;;;;;24.30;14.90;;;6.20;99.90;;;;;;5060517;28;20206;-79
2021/12/20 02:44:05;;;;;;;23.65;14.05;;;6.20;99.90;;;;;;5061505;28;20225;-79
2021/12/20 02:46:48;;;;;;;27.77;15.43;;;6.20;99.90;;;;;;5056715;28;20600;-79
2021/12/20 02:49:17;;;;;;;25.48;14.93;;;6.40;99.90;;;;;;5055038;28;20210;-79
2021/12/20 02:51:46;;;;;;;23.65;15.10;;;6.30;99.90;;;;;;5055804;28;20593;-79
2021/12/20 02:54:14;;;;;;;28.00;16.50;;;6.20;99.90;;;;;;5055377;28;20570;-79
2021/12/20 02:56:43;;;;;;;27.00;15.98;;;6.30;99.90;;;;;;5054504;28;20215;-78
2021/12/20 02:59:11;;;;;;;22.90;14.43;;;6.40;99.90;;;;;;5054937;28;20584;-80
2021/12/20 03:01:39;;;;;;;27.10;15.32;;;6.40;99.90;;;;;;5058589;28;20224;-79
2021/12/20 03:04:07;;;;;;;27.75;15.55;;;6.20;99.90;;;;;;5058799;28;20218;-78
2021/12/20 03:06:39;;;;;;;27.75;15.80;;;6.20;99.90;;;;;;5064777;28;20238;-78
2021/12/20 03:09:11;;;;;;;25.15;15.02;;;6.40;99.90;;;;;;5060711;28;20257;-79
2021/12/20 03:11:38;;;;;;;27.13;15.45;;;6.10;99.90;;;;;;5058888;28;20270;-79
2021/12/20 03:14:13;;;;;;;26.58;14.93;;;6.30;99.90;;;;;;5058580;28;20202;-79
2021/12/20 03:16:41;;;;;;;27.80;15.85;;;6.40;99.90;;;;;;5058484;28;20292;-79
2021/12/20 03:19:08;;;;;;;28.45;16.02;;;6.30;99.90;;;;;;5058569;28;20553;-80
2021/12/20 03:21:35;;;;;;;30.63;15.25;;;6.50;99.90;;;;;;5058039;28;20216;-79
2021/12/20 03:24:02;;;;;;;25.58;15.48;;;6.50;99.90;;;;;;5057367;28;20230;-78
2021/12/20 03:26:30;;;;;;;28.90;15.85;;;6.60;99.90;;;;;;5060278;28;20293;-78
2021/12/20 03:28:57;;;;;;;23.83;13.98;;;6.50;99.90;;;;;;5057835;28;20325;-79
2021/12/20 03:31:24;;;;;;;24.08;13.95;;;6.20;99.90;;;;;;5059350;28;20385;-79
2021/12/20 03:33:51;;;;;;;27.30;16.05;;;6.60;99.90;;;;;;5058401;28;20209;-80
2021/12/20 03:36:17;;;;;;;23.98;14.25;;;6.40;99.90;;;;;;5059004;28;20212;-80
2021/12/20 03:38:44;;;;;;;23.75;14.43;;;6.50;99.90;;;;;;5059660;28;20233;-79
2021/12/20 03:41:11;;;;;;;24.83;15.77;;;6.30;99.90;;;;;;5071858;28;20213;-79
2021/12/20 03:43:39;;;;;;;25.80;13.90;;;6.30;99.90;;;;;;5061707;28;20222;-79
2021/12/20 03:46:06;;;;;;;21.98;12.18;;;6.30;99.90;;;;;;5059080;28;20301;-79
2021/12/20 03:48:34;;;;;;;23.70;12.88;;;6.50;99.90;;;;;;5078921;22;20232;-88
2021/12/20 03:51:02;;;;;;;25.42;14.13;;;6.10;99.90;;;;;;5072301;28;20229;-88
2021/12/20 03:53:30;;;;;;;30.02;16.27;;;5.90;99.90;;;;;;5065962;28;20197;-88
2021/12/20 03:55:57;;;;;;;25.17;14.93;;;5.30;99.90;;;;;;5063276;28;20201;-87
2021/12/20 03:58:26;;;;;;;25.27;15.05;;;5.70;99.90;;;;;;5061364;28;20312;-87
2021/12/20 04:00:55;;;;;;;37.92;16.20;;;5.60;99.90;;;;;;5060716;28;20211;-86
2021/12/20 04:03:22;;;;;;;28.30;17.35;;;5.60;99.90;;;;;;5061652;28;20229;-86
2021/12/20 04:05:49;;;;;;;29.13;17.30;;;5.70;99.90;;;;;;5062074;28;20202;-86
2021/12/20 04:08:16;;;;;;;29.33;16.45;;;5.80;99.90;;;;;;5061777;28;20228;-86
2021/12/20 04:10:43;;;;;;;32.05;17.67;;;5.70;99.90;;;;;;5060788;28;20585;-85
2021/12/20 04:13:10;;;;;;;30.90;17.90;;;5.80;99.90;;;;;;5060571;28;20667;-87
2021/12/20 04:15:37;;;;;;;31.45;16.33;;;5.70;99.90;;;;;;5061147;28;20245;-87
2021/12/20 04:18:06;;;;;;;29.42;15.20;;;5.30;99.90;;;;;;5061061;28;20722;-87
2021/12/20 04:20:33;;;;;;;27.05;17.60;;;5.70;99.90;;;;;;5061110;28;20714;-86
2021/12/20 04:22:59;;;;;;;31.65;17.48;;;6.00;99.90;;;;;;5072176;28;20222;-84
2021/12/20 04:25:27;;;;;;;29.33;16.25;;;5.90;99.90;;;;;;5074908;28;20241;-86
2021/12/20 04:27:54;;;;;;;34.67;18.27;;;5.90;99.90;;;;;;5062107;28;20313;-87
2021/12/20 04:30:21;;;;;;;29.05;17.55;;;5.60;99.90;;;;;;5062479;28;20236;-86
2021/12/20 04:32:48;;;;;;;30.17;16.35;;;5.80;99.90;;;;;;5061347;28;20211;-86
2021/12/20 04:35:17;;;;;;;25.83;15.05;;;5.90;99.90;;;;;;5060523;28;20206;-86
2021/12/20 04:37:47;;;;;;;28.83;16.30;;;6.00;99.90;;;;;;5061211;28;20252;-86
2021/12/20 04:40:18;;;;;;;28.42;17.08;;;5.90;99.90;;;;;;5061333;28;20212;-87
2021/12/20 04:42:45;;;;;;;26.35;15.68;;;6.00;99.90;;;;;;5061041;28;20226;-85
2021/12/20 04:45:12;;;;;;;28.02;15.70;;;5.90;99.90;;;;;;5061271;28;20274;-86
2021/12/20 04:47:39;;;;;;;27.17;16.70;;;5.80;99.90;;;;;;5059574;28;20237;-84
2021/12/20 04:50:08;;;;;;;28.02;16.23;;;5.90;99.90;;;;;;5060805;28;20223;-86
2021/12/20 04:52:36;;;;;;;28.70;17.95;;;5.70;99.90;;;;;;5060078;28;20285;-85
2021/12/20 04:55:04;;;;;;;24.40;15.90;;;5.60;99.90;;;;;;5061503;28;20544;-86
2021/12/20 04:57:31;;;;;;;28.80;16.40;;;5.80;99.90;;;;;;5062875;28;20210;-86
2021/12/20 04:59:58;;;;;;;28.15;15.50;;;5.90;99.90;;;;;;5062167;28;20212;-86
2021/12/20 05:02:26;;;;;;;25.20;14.85;;;6.00;99.90;;;;;;5059854;28;20190;-86
2021/12/20 05:04:53;;;;;;;27.80;14.85;;;6.10;99.90;;;;;;5061305;28;20289;-86
2021/12/20 05:07:20;;;;;;;28.63;16.52;;;6.20;99.90;;;;;;5067365;28;20288;-85
2021/12/20 05:09:49;;;;;;;30.58;15.93;;;6.20;99.90;;;;;;5077361;28;20285;-85
2021/12/20 05:12:15;;;;;;;27.63;15.10;;;5.90;99.90;;;;;;5078613;28;20232;-85
2021/12/20 05:14:44;;;;;;;27.80;15.90;;;5.90;99.90;;;;;;5070703;28;20225;-87
2021/12/20 05:17:13;;;;;;;25.55;14.65;;;6.00;99.90;;;;;;5062280;28;20228;-86
2021/12/20 05:19:41;;;;;;;25.63;15.00;;;6.00;99.90;;;;;;5061334;28;20738;-87
2021/12/20 05:22:09;;;;;;;24.50;14.85;;;5.90;99.90;;;;;;5059874;28;20301;-87
2021/12/20 05:24:36;;;;;;;24.92;15.20;;;6.10;99.90;;;;;;5059992;28;20233;-87
2021/12/20 05:27:05;;;;;;;25.98;15.98;;;6.10;99.90;;;;;;5060738;28;20296;-87
2021/12/20 05:29:32;;;;;;;24.48;15.82;;;6.20;99.90;;;;;;5060118;28;20344;-86
2021/12/20 05:32:02;;;;;;;23.65;14.10;;;6.10;99.90;;;;;;5061204;28;20313;-86
2021/12/20 05:34:29;;;;;;;26.05;15.38;;;6.10;99.90;;;;;;5074850;28;20186;-86
2021/12/20 05:36:55;;;;;;;29.65;15.20;;;6.20;99.90;;;;;;5064181;28;20212;-86
2021/12/20 05:39:22;;;;;;;24.67;14.40;;;6.20;99.90;;;;;;5060600;28;20262;-88
2021/12/20 05:41:49;;;;;;;29.83;15.77;;;6.20;99.90;;;;;;5060941;28;20289;-87
2021/12/20 05:44:17;;;;;;;24.00;14.88;;;6.20;99.90;;;;;;5072992;28;20242;-84
2021/12/20 05:46:44;;;;;;;27.13;14.85;;;6.20;99.90;;;;;;5070712;28;20241;-86
2021/12/20 05:49:11;;;;;;;26.35;14.23;;;6.10;99.90;;;;;;5067398;28;20294;-86
2021/12/20 05:51:38;;;;;;;23.50;15.00;;;6.30;99.90;;;;;;5067282;28;20209;-87
2021/12/20 05:54:05;;;;;;;25.55;15.30;;;6.10;99.90;;;;;;5068178;28;20241;-86
2021/12/20 05:56:32;;;;;;;28.92;16.65;;;6.20;99.90;;;;;;5062155;28;20202;-87
2021/12/20 05:58:59;;;;;;;27.42;14.32;;;5.80;99.90;;;;;;5067334;28;20240;-86
2021/12/20 06:01:27;;;;;;;26.60;15.05;;;5.90;99.90;;;;;;5076301;28;20254;-86
2021/12/20 06:03:54;;;;;;;26.00;15.45;;;5.90;99.90;;;;;;5068936;28;20222;-86
2021/12/20 06:06:21;;;;;;;27.30;15.77;;;6.00;99.90;;;;;;5067264;28;20262;-86
2021/12/20 06:08:48;;;;;;;23.60;15.20;;;6.10;99.90;;;;;;5067493;28;20230;-88
2021/12/20 06:11:14;;;;;;;25.17;15.32;;;6.10;99.90;;;;;;5078686;28;20253;-80
2021/12/20 06:13:41;;;;;;;34.97;16.42;;;5.90;99.90;;;;;;5076520;28;20234;-85
2021/12/20 06:16:08;;;;;;;25.42;14.80;;;6.00;99.90;;;;;;5064849;28;20265;-85
2021/12/20 06:18:36;;;;;;;28.52;17.80;;;6.10;99.90;;;;;;5078032;28;20229;-84
2021/12/20 06:21:04;;;;;;;29.75;17.88;;;5.80;99.90;;;;;;5068628;28;20213;-88
2021/12/20 06:23:31;;;;;;;29.48;16.58;;;5.60;99.90;;;;;;5060684;28;20302;-86
2021/12/20 06:25:57;;;;;;;27.95;15.57;;;5.60;99.90;;;;;;5070151;28;20269;-83
2021/12/20 06:28:24;;;;;;;22.23;13.20;;;6.10;99.90;;;;;;5071004;28;20226;-87
2021/12/20 06:30:51;;;;;;;25.35;15.75;;;6.30;99.90;;;;;;5062102;28;20310;-81
2021/12/20 06:33:18;;;;;;;30.35;15.80;;;5.90;99.90;;;;;;5060400;28;20231;-83
2021/12/20 06:35:47;;;;;;;28.35;14.85;;;6.50;99.90;;;;;;5060124;28;20561;-82
2021/12/20 06:38:19;;;;;;;22.52;13.05;;;6.30;99.90;;;;;;5073273;28;20227;-83
2021/12/20 06:40:46;;;;;;;23.17;13.45;;;6.40;99.90;;;;;;5069988;28;20198;-82
2021/12/20 06:43:13;;;;;;;27.25;15.35;;;6.40;99.90;;;;;;5066235;28;20296;-84
2021/12/20 06:45:40;;;;;;;24.25;14.27;;;6.40;99.90;;;;;;5061213;28;20274;-79
2021/12/20 06:48:07;;;;;;;24.92;13.50;;;6.30;99.90;;;;;;5058142;28;20609;-79
2021/12/20 06:50:34;;;;;;;23.83;14.25;;;6.20;99.90;;;;;;5058357;28;20220;-80
2021/12/20 06:53:02;;;;;;;29.65;15.88;;;6.30;99.90;;;;;;5058809;28;20211;-80
2021/12/20 06:55:29;;;;;;;23.50;14.38;;;6.20;99.90;;;;;;5057695;28;20236;-80
2021/12/20 06:57:56;;;;;;;25.17;15.15;;;6.20;99.90;;;;;;5057304;28;20222;-81
2021/12/20 07:00:23;;;;;;;23.50;13.63;;;6.40;99.90;;;;;;5063320;28;20220;-80
2021/12/20 07:02:50;;;;;;;24.65;14.05;;;6.50;99.90;;;;;;5070452;28;20206;-80
2021/12/20 07:05:17;;;;;;;25.42;13.43;;;6.20;99.90;;;;;;5067312;28;20213;-80
2021/12/20 07:07:44;;;;;;;27.02;14.20;;;6.10;99.90;;;;;;5057225;28;20571;-80
2021/12/20 07:10:12;;;;;;;25.33;13.35;;;6.10;99.90;;;;;;5058072;28;20266;-81
2021/12/20 07:12:39;;;;;;;26.35;14.20;;;6.30;99.90;;;;;;5058515;28;20214;-81
2021/12/20 07:15:10;;;;;;;31.05;15.93;;;6.10;99.90;;;;;;5058660;28;20353;-82
2021/12/20 07:17:37;;;;;;;20.95;12.48;;;6.20;99.90;;;;;;5057740;28;20229;-81
2021/12/20 07:20:05;;;;;;;24.13;13.43;;;6.10;99.90;;;;;;5070835;28;20270;-79
2021/12/20 07:22:33;;;;;;;26.15;14.23;;;6.00;99.90;;;;;;5069521;28;20202;-80
2021/12/20 07:25:01;;;;;;;24.13;14.15;;;6.10;99.90;;;;;;5062891;28;20228;-81
2021/12/20 07:27:30;;;;;;;23.98;14.45;;;6.00;99.90;;;;;;5059461;28;20206;-79
2021/12/20 07:29:57;;;;;;;24.15;14.05;;;6.20;99.90;;;;;;5057936;28;20620;-80
2021/12/20 07:32:24;;;;;;;24.55;15.60;;;6.10;99.90;;;;;;5058147;28;20293;-85
2021/12/20 07:34:51;;;;;;;22.40;13.52;;;6.20;99.90;;;;;;5057952;28;20209;-81
2021/12/20 07:37:18;;;;;;;22.92;13.63;;;6.00;99.90;;;;;;5058585;28;20217;-80
2021/12/20 07:39:45;;;;;;;27.27;14.82;;;6.00;99.90;;;;;;5057443;28;20216;-81
2021/12/20 07:42:12;;;;;;;21.42;12.77;;;6.00;99.90;;;;;;5058124;28;20212;-81
2021/12/20 07:44:40;;;;;;;23.17;13.27;;;6.00;99.90;;;;;;5057861;28;20583;-81
2021/12/20 07:47:07;;;;;;;26.58;14.38;;;6.00;99.90;;;;;;5061848;28;20216;-80
2021/12/20 07:49:34;;;;;;;24.83;13.45;;;6.20;99.90;;;;;;5064160;28;20650;-79
2021/12/20 07:52:01;;;;;;;23.25;13.45;;;6.30;99.90;;;;;;5065922;28;20687;-80
2021/12/20 07:54:28;;;;;;;24.20;13.18;;;6.40;99.90;;;;;;5065044;28;20230;-79
2021/12/20 07:56:55;;;;;;;21.42;13.48;;;6.50;99.90;;;;;;5063732;28;20263;-79
2021/12/20 07:59:22;;;;;;;22.83;13.10;;;6.60;99.90;;;;;;5064621;28;20253;-79
2021/12/20 08:01:51;;;;;;;24.65;12.18;;;6.50;99.90;;;;;;5073963;28;20265;-79
2021/12/20 08:04:17;;;;;;;23.77;13.30;;;6.50;99.90;;;;;;5070810;28;20309;-80
2021/12/20 08:06:45;;;;;;;26.05;15.25;;;6.40;99.90;;;;;;5072412;28;20270;-79
2021/12/20 08:09:14;;;;;;;28.13;14.90;;;6.40;99.90;;;;;;5066806;28;20234;-79
2021/12/20 08:11:41;;;;;;;27.35;15.60;;;6.20;99.90;;;;;;5063049;28;20208;-80
2021/12/20 08:14:08;;;;;;;26.45;14.25;;;6.40;99.90;;;;;;5061504;28;20552;-79
2021/12/20 08:16:35;;;;;;;25.85;14.45;;;6.00;99.90;;;;;;5061021;28;20214;-80
2021/12/20 08:19:04;;;;;;;24.83;15.00;;;6.40;99.90;;;;;;5061084;28;20237;-80
2021/12/20 08:21:31;;;;;;;23.15;14.00;;;6.60;99.90;;;;;;5061029;28;20193;-80
2021/12/20 08:23:57;;;;;;;29.30;17.02;;;6.50;99.90;;;;;;5066952;28;20222;-86
2021/12/20 08:26:26;;;;;;;26.67;15.45;;;6.70;99.90;;;;;;5068969;28;20237;-87
2021/12/20 08:28:53;;;;;;;25.10;14.30;;;6.80;99.90;;;;;;5064248;28;20260;-86
2021/12/20 08:31:20;;;;;;;25.33;14.98;;;6.60;99.90;;;;;;5062238;28;20211;-82
2021/12/20 08:33:47;;;;;;;26.13;14.15;;;6.70;99.90;;;;;;5062804;28;20206;-79
2021/12/20 08:36:15;;;;;;;24.48;13.65;;;6.80;99.90;;;;;;5060873;28;20297;-79
2021/12/20 08:38:42;;;;;;;30.20;14.57;;;6.80;99.90;;;;;;5060582;28;20710;-81
2021/12/20 08:41:11;;;;;;;27.10;15.32;;;6.80;99.90;;;;;;5061961;28;20210;-80
2021/12/20 08:43:38;;;;;;;26.08;16.30;;;6.70;99.90;;;;;;5061643;28;20203;-80
2021/12/20 08:46:05;;;;;;;27.75;15.15;;;6.90;99.90;;;;;;5060993;28;20590;-80
2021/12/20 08:48:33;;;;;;;26.70;14.85;;;6.90;99.90;;;;;;5061031;28;20236;-81
2021/12/20 08:51:02;;;;;;;27.45;16.73;;;6.80;99.90;;;;;;5060619;28;20695;-81
2021/12/20 08:53:30;;;;;;;28.50;16.15;;;6.40;99.90;;;;;;5065280;28;20225;-80
2021/12/20 08:55:57;;;;;;;28.65;15.00;;;6.50;99.90;;;;;;5063692;28;20283;-80
2021/12/20 08:58:25;;;;;;;26.10;14.65;;;6.50;99.90;;;;;;5059607;28;20236;-80
2021/12/20 09:00:53;;;;;;;26.65;15.40;;;6.70;99.90;;;;;;5062096;28;20210;-79
2021/12/20 09:03:21;;;;;;;28.75;15.90;;;6.70;99.90;;;;;;5065525;28;20678;-79
2021/12/20 09:05:48;;;;;;;29.58;16.00;;;6.70;99.90;;;;;;5068857;28;20218;-76
2021/12/20 09:08:17;;;;;;;28.55;15.82;;;6.30;99.90;;;;;;5071101;28;20234;-78
2021/12/20 09:10:46;;;;;;;25.95;15.30;;;6.70;99.90;;;;;;5066216;28;20250;-79
2021/12/20 09:13:13;;;;;;;30.35;16.77;;;6.80;99.90;;;;;;5066043;28;20289;-79
2021/12/20 09:15:40;;;;;;;30.77;17.10;;;6.50;99.90;;;;;;5060114;28;20202;-79
2021/12/20 09:18:08;;;;;;;30.83;15.52;;;6.50;99.90;;;;;;5064707;28;20230;-79
2021/12/20 09:20:36;;;;;;;31.52;16.73;;;6.60;99.90;;;;;;5068441;28;20210;-83
2021/12/20 09:23:05;;;;;;;28.25;15.00;;;6.50;99.90;;;;;;5068126;28;20260;-82
2021/12/20 09:25:34;;;;;;;29.25;17.42;;;6.40;99.90;;;;;;5068109;28;20219;-85
2021/12/20 09:28:03;;;;;;;26.95;16.45;;;6.60;99.90;;;;;;5064269;28;20226;-84
2021/12/20 09:30:31;;;;;;;37.10;18.23;;;6.30;99.90;;;;;;5075012;28;20210;-84
2021/12/20 09:32:59;;;;;;;35.35;18.23;;;6.40;99.90;;;;;;5072907;28;20206;-84
2021/12/20 09:35:27;;;;;;;28.27;15.35;;;6.40;99.90;;;;;;5068128;28;20222;-85
2021/12/20 09:37:53;;;;;;;29.00;15.80;;;6.40;99.90;;;;;;5070493;28;20621;-85
2021/12/20 09:40:31;;;;;;;24.20;15.85;;;6.40;99.90;;;;;;5068296;28;20237;-84
2021/12/20 09:42:59;;;;;;;33.58;19.35;;;6.30;99.90;;;;;;5064154;28;20190;-84
2021/12/20 09:45:28;;;;;;;29.05;17.30;;;6.30;99.90;;;;;;5061641;28;20663;-78
2021/12/20 09:47:55;;;;;;;27.80;14.23;;;6.50;99.90;;;;;;5060659;28;20317;-79
2021/12/20 09:50:22;;;;;;;31.33;15.77;;;6.70;99.90;;;;;;5059309;28;20202;-79
2021/12/20 09:52:49;;;;;;;33.50;18.10;;;6.60;99.90;;;;;;5059009;28;20234;-79
2021/12/20 09:55:17;;;;;;;29.35;15.80;;;6.60;99.90;;;;;;5062943;28;20271;-79
2021/12/20 09:57:46;;;;;;;31.05;16.10;;;6.70;99.90;;;;;;5074649;28;20216;-79
2021/12/20 10:00:17;;;;;;;30.42;14.43;;;6.70;99.90;;;;;;5064758;28;20305;-80
2021/12/20 10:02:47;;;;;;;31.17;16.35;;;6.80;99.90;;;;;;5067379;28;20517;-80
2021/12/20 10:05:19;;;;;;;29.40;17.27;;;6.50;99.90;;;;;;5079279;22;20228;-85
2021/12/20 10:07:50;;;;;;;29.77;15.68;;;6.30;99.90;;;;;;5038689;28;20207;-89
2021/12/20 10:10:36;;;;;;;35.83;17.77;;;6.40;99.90;;;;;;5038354;28;20254;-87
2021/12/20 10:13:03;;;;;;;32.13;16.50;;;6.50;99.90;;;;;;5054432;28;20275;-84
2021/12/20 10:15:34;;;;;;;33.40;18.73;;;6.60;99.90;;;;;;5048489;28;20219;-88
2021/12/20 10:18:02;;;;;;;38.53;18.40;;;6.70;99.90;;;;;;5036801;28;20313;-80
2021/12/20 10:20:31;;;;;;;35.03;16.70;;;6.70;99.90;;;;;;5038696;28;20242;-83
2021/12/20 10:23:14;;;;;;;32.40;17.38;;;6.50;99.90;;;;;;5051019;28;20300;-87
2021/12/20 10:26:21;;;;;;;26.02;13.35;;;6.70;99.90;;;;;;5039220;28;20267;-86
2021/12/20 10:28:56;;;;;;;33.90;16.10;;;6.70;99.90;;;;;;5037124;28;20606;-87
2021/12/20 10:31:37;;;;;;;28.55;16.00;;;6.70;99.90;;;;;;5035475;28;20369;-86
2021/12/20 10:34:18;;;;;;;26.92;14.82;;;6.60;99.90;;;;;;5034986;28;20570;-87
2021/12/20 10:37:01;;;;;;;30.17;17.02;;;6.50;99.90;;;;;;5035045;28;20233;-86
2021/12/20 10:39:37;;;;;;;26.30;14.38;;;6.60;99.90;;;;;;5035745;28;20248;-86
2021/12/20 10:42:19;;;;;;;28.08;15.60;;;6.20;99.90;;;;;;5037735;28;20194;-87
2021/12/20 10:45:09;;;;;;;26.67;15.90;;;6.60;99.90;;;;;;5042632;28;20236;-86
2021/12/20 10:47:37;;;;;;;37.38;13.85;;;6.50;99.90;;;;;;5037050;28;20187;-86
2021/12/20 10:50:22;;;;;;;24.20;14.30;;;6.40;99.90;;;;;;5043126;28;20203;-87
2021/12/20 10:52:52;;;;;;;20.40;11.73;;;6.60;99.90;;;;;;5034154;28;20294;-87
2021/12/20 10:55:40;;;;;;;20.10;11.35;;;6.50;99.90;;;;;;5044421;28;20254;-86
2021/12/20 10:58:29;;;;;;;19.35;9.45;;;6.60;99.90;;;;;;5042578;28;20276;-86
2021/12/20 11:01:06;;;;;;;22.52;11.40;;;6.60;99.90;;;;;;5044441;28;20238;-87
2021/12/20 11:03:38;;;;;;;18.88;11.30;;;6.60;99.90;;;;;;5043585;28;20213;-86
2021/12/20 11:06:26;;;;;;;20.42;12.65;;;6.70;99.90;;;;;;5049329;28;20238;-86
2021/12/20 11:09:06;;;;;;;23.90;13.48;;;6.80;99.90;;;;;;5050407;28;20196;-86
2021/12/20 11:11:34;;;;;;;20.60;12.80;;;6.60;99.90;;;;;;5045531;28;20202;-86
2021/12/20 11:14:02;;;;;;;18.88;10.50;;;6.70;99.90;;;;;;5043386;28;20380;-86
2021/12/20 11:16:31;;;;;;;20.50;11.68;;;6.80;99.90;;;;;;5035693;28;20321;-86
2021/12/20 11:19:18;;;;;;;19.80;11.90;;;6.90;99.90;;;;;;5037289;28;20208;-86
2021/12/20 11:21:56;;;;;;;18.50;10.02;;;6.90;99.90;;;;;;5044872;28;20298;-86
2021/12/20 11:24:24;;;;;;;18.60;10.68;;;7.00;99.90;;;;;;5040030;28;20283;-87
2021/12/20 11:26:53;;;;;;;17.55;10.73;;;6.80;99.90;;;;;;5039517;28;20284;-86
2021/12/20 11:29:23;;;;;;;22.77;12.48;;;7.00;99.90;;;;;;5040242;28;20589;-86
2021/12/20 11:31:57;;;;;;;24.17;11.35;;;7.00;99.90;;;;;;5041654;28;20282;-86
2021/12/20 11:34:27;;;;;;;19.60;11.05;;;6.60;99.90;;;;;;5039618;28;20644;-86
2021/12/20 11:36:57;;;;;;;18.02;11.10;;;7.00;99.90;;;;;;5038979;28;20308;-87
2021/12/20 11:39:24;;;;;;;20.83;11.13;;;7.20;99.90;;;;;;5038420;28;20645;-87
2021/12/20 11:41:51;;;;;;;22.48;12.55;;;7.30;99.90;;;;;;5038056;28;20203;-87
2021/12/20 11:44:36;;;;;;;19.35;11.15;;;7.40;99.90;;;;;;5040271;28;20234;-87
2021/12/20 11:47:11;;;;;;;17.58;9.50;;;7.30;99.90;;;;;;5040110;28;20330;-83
2021/12/20 11:49:39;;;;;;;14.77;9.50;;;7.50;99.90;;;;;;5040318;28;20203;-83
2021/12/20 11:52:16;;;;;;;20.60;10.35;;;7.40;99.90;;;;;;5040220;28;20224;-83
2021/12/20 11:54:49;;;;;;;16.02;9.75;;;7.40;99.90;;;;;;5038750;28;20552;-83
2021/12/20 11:57:42;;;;;;;28.48;18.77;;;7.70;99.90;;;;;;5040151;28;20254;-83
2021/12/20 12:00:19;;;;;;;18.23;10.05;;;7.60;99.90;;;;;;5040758;28;20222;-83
2021/12/20 12:02:48;;;;;;;18.10;9.93;;;7.70;99.90;;;;;;5040269;28;20192;-81
2021/12/20 12:05:17;;;;;;;15.45;8.80;;;7.90;99.90;;;;;;5040568;28;20246;-82
2021/12/20 12:07:47;;;;;;;17.30;9.57;;;7.90;99.90;;;;;;5049834;28;20206;-82
2021/12/20 12:10:16;;;;;;;22.33;11.85;;;7.60;99.90;;;;;;5053649;28;20254;-82
2021/12/20 12:12:45;;;;;;;20.20;11.20;;;7.60;99.90;;;;;;5054246;28;20214;-81
2021/12/20 12:15:17;;;;;;;29.50;12.18;;;7.70;99.90;;;;;;5054238;28;20227;-80
2021/12/20 12:17:58;;;;;;;22.67;12.25;;;7.60;99.90;;;;;;5042622;28;20195;-86
2021/12/20 12:20:44;;;;;;;20.77;13.15;;;7.40;99.90;;;;;;5048783;28;20198;-86
2021/12/20 12:23:21;;;;;;;23.98;12.32;;;7.00;99.90;;;;;;5055982;28;20246;-83
2021/12/20 12:25:51;;;;;;;20.70;12.15;;;7.40;99.90;;;;;;5052907;28;20257;-86
2021/12/20 12:28:27;;;;;;;23.80;13.02;;;7.00;99.90;;;;;;5044310;28;20597;-86
2021/12/20 12:31:03;;;;;;;19.73;11.90;;;6.90;99.90;;;;;;5037621;28;20659;-86
2021/12/20 12:33:39;;;;;;;18.70;10.60;;;7.30;99.90;;;;;;5037419;28;20298;-86
2021/12/20 12:36:26;;;;;;;21.45;13.07;;;7.00;99.90;;;;;;5039513;28;20228;-86
2021/12/20 12:38:57;;;;;;;18.55;10.65;;;6.80;99.90;;;;;;5041234;28;20207;-86
2021/12/20 12:41:26;;;;;;;22.30;12.90;;;7.40;99.90;;;;;;5039766;28;20202;-86
2021/12/20 12:43:57;;;;;;;18.63;10.88;;;7.10;99.90;;;;;;5047465;28;20252;-86
2021/12/20 12:46:51;;;;;;;20.95;11.13;;;7.10;99.90;;;;;;5045274;28;20266;-81
2021/12/20 12:49:50;;;;;;;21.02;10.60;;;7.20;99.90;;;;;;5039127;28;20187;-81
2021/12/20 12:52:48;;;;;;;15.77;10.00;;;7.20;99.90;;;;;;5041100;28;20304;-81
2021/12/20 12:55:38;;;;;;;17.77;9.82;;;7.10;99.90;;;;;;5040928;28;20227;-81
2021/12/20 12:58:23;;;;;;;16.00;8.60;;;7.00;99.90;;;;;;5043482;28;20223;-85
2021/12/20 13:00:58;;;;;;;17.73;8.65;;;7.30;99.90;;;;;;5052441;28;20323;-85
2021/12/20 13:03:27;;;;;;;17.42;8.73;;;7.20;99.90;;;;;;5045951;28;20651;-86
2021/12/20 13:05:54;;;;;;;14.57;6.57;;;7.00;99.90;;;;;;5053121;28;20230;-82
2021/12/20 13:08:21;;;;;;;18.23;9.27;;;7.10;99.90;;;;;;5041717;28;20615;-83